Time;durP1;ratioP1;P1;durP2;ratioP2;P2;SDS_P1;SDS_P2;PMS_P1;PMS_P2;Temp;Humidity;BMP_temperature;BMP_pressure;BME280_temperature;BME280_humidity;BME280_pressure;Samples;Min_cycle;Max_cycle;Signal;HPM_P1;HPM_P2
2021/01/09 00:00:09;;;;;;;17.15;10.95;;;0.30;99.90;;;;;;5085193;28;20028;-72
2021/01/09 00:02:34;;;;;;;19.30;11.43;;;0.30;99.90;;;;;;5072487;28;20028;-75
2021/01/09 00:05:00;;;;;;;20.92;11.75;;;0.40;99.90;;;;;;5085635;28;20358;-72
2021/01/09 00:07:26;;;;;;;19.20;11.18;;;0.30;99.90;;;;;;5082748;28;20024;-74
2021/01/09 00:09:52;;;;;;;16.42;11.70;;;0.30;99.90;;;;;;5083636;28;20074;-71
2021/01/09 00:12:17;;;;;;;18.23;11.57;;;0.30;99.90;;;;;;5068926;28;20023;-68
2021/01/09 00:14:43;;;;;;;21.90;12.27;;;0.40;99.90;;;;;;5082873;28;20028;-74
2021/01/09 00:17:09;;;;;;;18.55;10.98;;;0.30;99.90;;;;;;5082225;28;20330;-75
2021/01/09 00:19:35;;;;;;;21.77;12.25;;;0.30;99.90;;;;;;5074456;28;20119;-74
2021/01/09 00:22:01;;;;;;;18.52;11.38;;;0.30;99.90;;;;;;5072797;28;20181;-73
2021/01/09 00:24:27;;;;;;;19.20;10.50;;;0.30;99.90;;;;;;5083788;28;20125;-73
2021/01/09 00:26:53;;;;;;;15.60;10.20;;;0.30;99.90;;;;;;5081763;28;20178;-74
2021/01/09 00:29:19;;;;;;;19.40;11.50;;;0.40;99.90;;;;;;5085915;28;20370;-74
2021/01/09 00:31:44;;;;;;;18.80;11.48;;;0.40;99.90;;;;;;5082890;28;20036;-72
2021/01/09 00:34:10;;;;;;;19.13;11.07;;;0.40;99.90;;;;;;5081882;28;20027;-72
2021/01/09 00:36:36;;;;;;;17.58;10.63;;;0.40;99.90;;;;;;5083526;28;20023;-74
2021/01/09 00:39:04;;;;;;;18.65;11.98;;;0.40;99.90;;;;;;5081521;28;20099;-75
2021/01/09 00:41:32;;;;;;;18.55;11.07;;;0.40;99.90;;;;;;5082092;28;20119;-74
2021/01/09 00:43:59;;;;;;;17.45;10.68;;;0.40;99.90;;;;;;5082734;28;20028;-74
2021/01/09 00:46:26;;;;;;;18.42;11.38;;;0.40;99.90;;;;;;5082583;28;20138;-74
2021/01/09 00:48:52;;;;;;;18.00;11.25;;;0.40;99.90;;;;;;5080602;28;20545;-72
2021/01/09 00:51:18;;;;;;;18.88;11.90;;;0.30;99.90;;;;;;5082643;28;20111;-73
2021/01/09 00:53:44;;;;;;;19.85;12.32;;;0.40;99.90;;;;;;5072923;28;20108;-73
2021/01/09 00:56:14;;;;;;;21.33;12.02;;;0.40;99.90;;;;;;5081296;28;20034;-73
2021/01/09 00:58:40;;;;;;;19.20;12.30;;;0.40;99.90;;;;;;5085239;28;20059;-73
2021/01/09 01:01:06;;;;;;;20.10;11.27;;;0.40;99.90;;;;;;5082598;28;20249;-75
2021/01/09 01:03:31;;;;;;;19.23;11.40;;;0.40;99.90;;;;;;5084608;28;20519;-71
2021/01/09 01:05:57;;;;;;;18.85;11.25;;;0.40;99.90;;;;;;5079971;28;20082;-70
2021/01/09 01:08:23;;;;;;;22.02;11.65;;;0.40;99.90;;;;;;5082086;28;20032;-70
2021/01/09 01:10:48;;;;;;;18.23;11.30;;;0.40;99.90;;;;;;5083464;28;20099;-74
2021/01/09 01:13:15;;;;;;;19.98;12.15;;;0.40;99.90;;;;;;5062980;28;20079;-74
2021/01/09 01:15:42;;;;;;;17.63;11.45;;;0.40;99.90;;;;;;5083001;28;20027;-74
2021/01/09 01:18:08;;;;;;;18.30;11.93;;;0.50;99.90;;;;;;5081627;28;20305;-73
2021/01/09 01:20:34;;;;;;;19.85;11.77;;;0.50;99.90;;;;;;5080716;28;20020;-74
2021/01/09 01:22:59;;;;;;;19.95;12.20;;;0.50;99.90;;;;;;5082568;28;20035;-73
2021/01/09 01:25:25;;;;;;;19.40;11.68;;;0.50;99.90;;;;;;5093597;28;20103;-69
2021/01/09 01:27:51;;;;;;;21.42;12.38;;;0.50;99.90;;;;;;5092356;28;20031;-73
2021/01/09 01:30:17;;;;;;;19.77;12.38;;;0.50;99.90;;;;;;5093140;28;20020;-74
2021/01/09 01:32:43;;;;;;;23.00;13.52;;;0.40;99.90;;;;;;5093195;28;20035;-74
2021/01/09 01:35:09;;;;;;;23.27;12.88;;;0.50;99.90;;;;;;5092516;28;20269;-73
2021/01/09 01:37:35;;;;;;;19.05;11.73;;;0.50;99.90;;;;;;5092804;28;20465;-71
2021/01/09 01:40:01;;;;;;;19.58;12.30;;;0.60;99.90;;;;;;5073119;28;20108;-69
2021/01/09 01:42:28;;;;;;;21.27;11.73;;;0.70;99.90;;;;;;5072760;28;20382;-72
2021/01/09 01:44:55;;;;;;;21.13;12.88;;;0.70;99.90;;;;;;5071974;28;20033;-72
2021/01/09 01:47:21;;;;;;;22.05;13.45;;;0.60;99.90;;;;;;5072631;28;20024;-71
2021/01/09 01:49:49;;;;;;;20.13;12.68;;;0.60;99.90;;;;;;5054500;28;20040;-69
2021/01/09 01:52:16;;;;;;;20.77;12.65;;;0.60;99.90;;;;;;5072072;28;20047;-70
2021/01/09 01:54:42;;;;;;;20.38;12.82;;;0.50;99.90;;;;;;5072430;28;20089;-69
2021/01/09 01:57:12;;;;;;;22.40;13.25;;;0.50;99.90;;;;;;5072002;28;20051;-73
2021/01/09 01:59:44;;;;;;;24.15;13.23;;;0.50;99.90;;;;;;5072625;28;20039;-72
2021/01/09 02:02:13;;;;;;;23.70;13.60;;;0.50;99.90;;;;;;5071569;28;20465;-73
2021/01/09 02:04:40;;;;;;;20.33;12.82;;;0.50;99.90;;;;;;5075996;28;20040;-72
2021/01/09 02:07:13;;;;;;;21.35;12.85;;;0.40;99.90;;;;;;5073640;28;20028;-74
2021/01/09 02:09:42;;;;;;;23.27;14.23;;;0.40;99.90;;;;;;5092380;28;20378;-72
2021/01/09 02:12:13;;;;;;;26.70;14.60;;;0.40;99.90;;;;;;5091700;28;20111;-72
2021/01/09 02:14:51;;;;;;;24.33;14.95;;;0.40;99.90;;;;;;5092663;28;20107;-73
2021/01/09 02:17:19;;;;;;;25.27;14.43;;;0.40;99.90;;;;;;5092619;28;20063;-73
2021/01/09 02:19:45;;;;;;;23.50;14.38;;;0.40;99.90;;;;;;5092531;28;20024;-70
2021/01/09 02:22:18;;;;;;;23.85;14.95;;;0.40;99.90;;;;;;5091579;28;20396;-72
2021/01/09 02:24:45;;;;;;;24.38;14.10;;;0.40;99.90;;;;;;5091940;28;20032;-74
2021/01/09 02:27:12;;;;;;;26.10;14.65;;;0.40;99.90;;;;;;5091298;28;20024;-73
2021/01/09 02:29:47;;;;;;;24.08;14.32;;;0.40;99.90;;;;;;5092270;28;20059;-69
2021/01/09 02:32:18;;;;;;;23.05;13.45;;;0.40;99.90;;;;;;5091903;28;20063;-74
2021/01/09 02:34:55;;;;;;;25.58;14.90;;;0.40;99.90;;;;;;5092073;28;20540;-73
2021/01/09 02:37:21;;;;;;;27.00;15.18;;;0.40;99.90;;;;;;5091858;28;20521;-74
2021/01/09 02:39:48;;;;;;;23.60;14.18;;;0.40;99.90;;;;;;5091384;28;20153;-73
2021/01/09 02:42:14;;;;;;;24.52;14.40;;;0.50;99.90;;;;;;5091570;28;20044;-71
2021/01/09 02:44:40;;;;;;;25.55;15.15;;;0.50;99.90;;;;;;5092215;28;20438;-74
2021/01/09 02:47:06;;;;;;;21.40;13.80;;;0.50;99.90;;;;;;5091105;28;20103;-74
2021/01/09 02:49:31;;;;;;;24.17;13.85;;;0.50;99.90;;;;;;5091466;28;20370;-74
2021/01/09 02:51:57;;;;;;;24.00;13.63;;;0.50;99.90;;;;;;5072999;28;20024;-73
2021/01/09 02:54:23;;;;;;;29.35;15.55;;;0.50;99.90;;;;;;5091392;28;20384;-73
2021/01/09 02:56:48;;;;;;;29.90;16.83;;;0.50;99.90;;;;;;5091556;28;20035;-73
2021/01/09 02:59:14;;;;;;;29.73;16.15;;;0.50;99.90;;;;;;5091202;28;20020;-72
2021/01/09 03:01:40;;;;;;;26.20;16.00;;;0.50;99.90;;;;;;5091971;28;20457;-72
2021/01/09 03:04:06;;;;;;;29.40;17.27;;;0.40;99.90;;;;;;5090926;28;20029;-72
2021/01/09 03:06:32;;;;;;;26.02;15.48;;;0.40;99.90;;;;;;5091094;28;20052;-73
2021/01/09 03:08:59;;;;;;;25.98;15.82;;;0.40;99.90;;;;;;5081443;28;20851;-74
2021/01/09 03:11:25;;;;;;;26.30;16.05;;;0.40;99.90;;;;;;5092037;28;20078;-72
2021/01/09 03:13:50;;;;;;;28.55;17.20;;;0.40;99.90;;;;;;5092335;28;20036;-73
2021/01/09 03:16:16;;;;;;;26.63;15.45;;;0.40;99.90;;;;;;5096188;28;20028;-73
2021/01/09 03:18:42;;;;;;;27.25;16.65;;;0.40;99.90;;;;;;5096642;28;20522;-73
2021/01/09 03:21:08;;;;;;;28.90;17.48;;;0.40;99.90;;;;;;5095100;28;20032;-74
2021/01/09 03:23:34;;;;;;;28.65;17.60;;;0.40;99.90;;;;;;5077671;28;20071;-70
2021/01/09 03:26:00;;;;;;;28.80;17.35;;;0.40;99.90;;;;;;5094673;28;20024;-74
2021/01/09 03:28:26;;;;;;;27.80;16.27;;;0.40;99.90;;;;;;5096087;28;20081;-73
2021/01/09 03:30:52;;;;;;;35.75;20.67;;;0.40;99.90;;;;;;5095297;28;20394;-73
2021/01/09 03:33:18;;;;;;;32.25;19.50;;;0.40;99.90;;;;;;5077046;28;20053;-73
2021/01/09 03:35:43;;;;;;;31.40;18.90;;;0.40;99.90;;;;;;5095834;28;20024;-73
2021/01/09 03:38:09;;;;;;;33.58;19.98;;;0.40;99.90;;;;;;5094720;28;20102;-75
2021/01/09 03:40:35;;;;;;;33.38;19.88;;;0.40;99.90;;;;;;5095869;28;20055;-74
2021/01/09 03:43:01;;;;;;;35.10;20.35;;;0.40;99.90;;;;;;5094248;28;20435;-74
2021/01/09 03:45:26;;;;;;;37.58;23.05;;;0.40;99.90;;;;;;5095247;28;20043;-69
2021/01/09 03:47:52;;;;;;;35.72;20.08;;;0.40;99.90;;;;;;5094950;28;20109;-71
2021/01/09 03:50:18;;;;;;;34.03;19.55;;;0.40;99.90;;;;;;5095001;28;20036;-72
2021/01/09 03:52:43;;;;;;;34.65;19.67;;;0.40;99.90;;;;;;5095250;28;20514;-69
2021/01/09 03:55:10;;;;;;;31.48;19.05;;;0.40;99.90;;;;;;5094022;28;20551;-74
2021/01/09 03:57:35;;;;;;;35.72;20.80;;;0.40;99.90;;;;;;5095271;28;20028;-74
2021/01/09 04:00:03;;;;;;;35.92;19.75;;;0.40;99.90;;;;;;5094035;28;20082;-74
2021/01/09 04:02:28;;;;;;;36.13;19.88;;;0.40;99.90;;;;;;5094913;28;20130;-74
2021/01/09 04:04:54;;;;;;;34.40;19.90;;;0.40;99.90;;;;;;5093886;28;20130;-73
2021/01/09 04:07:20;;;;;;;35.75;20.33;;;0.30;99.90;;;;;;5094900;28;20028;-74
2021/01/09 04:09:45;;;;;;;37.22;21.23;;;0.30;99.90;;;;;;5094685;28;20069;-74
2021/01/09 04:12:11;;;;;;;41.88;22.20;;;0.30;99.90;;;;;;5093648;28;20059;-74
2021/01/09 04:14:37;;;;;;;39.33;21.25;;;0.30;99.90;;;;;;5076592;28;20377;-73
2021/01/09 04:17:02;;;;;;;37.25;21.42;;;0.30;99.90;;;;;;5094088;28;20024;-73
2021/01/09 04:19:28;;;;;;;38.72;21.65;;;0.30;99.90;;;;;;5094514;28;20434;-73
2021/01/09 04:21:54;;;;;;;37.47;20.83;;;0.30;99.90;;;;;;5093928;28;20461;-71
2021/01/09 04:24:21;;;;;;;38.25;22.38;;;0.30;99.90;;;;;;5094313;28;20028;-69
2021/01/09 04:26:57;;;;;;;40.08;21.25;;;0.30;99.90;;;;;;5093586;28;20074;-72
2021/01/09 04:29:23;;;;;;;38.15;21.20;;;0.30;99.90;;;;;;5076363;28;20458;-73
2021/01/09 04:31:50;;;;;;;35.38;20.08;;;0.30;99.90;;;;;;5094371;28;20045;-70
2021/01/09 04:34:16;;;;;;;37.30;21.67;;;0.30;99.90;;;;;;5093516;28;20028;-74
2021/01/09 04:36:42;;;;;;;39.45;21.88;;;0.30;99.90;;;;;;5094521;28;20032;-74
2021/01/09 04:39:08;;;;;;;36.80;20.85;;;0.20;99.90;;;;;;5093458;28;20376;-73
2021/01/09 04:41:35;;;;;;;38.25;22.85;;;0.20;99.90;;;;;;5094079;28;20040;-74
2021/01/09 04:44:06;;;;;;;37.03;21.02;;;0.20;99.90;;;;;;5093218;28;20144;-73
2021/01/09 04:46:51;;;;;;;40.85;21.40;;;0.20;99.90;;;;;;5094140;28;20411;-66
2021/01/09 04:49:19;;;;;;;40.72;22.25;;;0.20;99.90;;;;;;5093506;28;20057;-74
2021/01/09 04:51:46;;;;;;;38.17;22.00;;;0.20;99.90;;;;;;5094168;28;20476;-74
2021/01/09 04:54:15;;;;;;;39.10;21.98;;;0.20;99.90;;;;;;5093034;28;20035;-73
2021/01/09 04:56:43;;;;;;;37.78;22.15;;;0.20;99.90;;;;;;5094249;28;20020;-74
2021/01/09 04:59:10;;;;;;;45.42;22.95;;;0.20;99.90;;;;;;5093629;28;20377;-70
2021/01/09 05:01:36;;;;;;;42.42;22.48;;;0.20;99.90;;;;;;5094024;28;20028;-75
2021/01/09 05:04:02;;;;;;;42.40;23.38;;;0.20;99.90;;;;;;5074991;28;20058;-73
2021/01/09 05:06:28;;;;;;;44.30;23.33;;;0.10;99.90;;;;;;5075308;28;20492;-74
2021/01/09 05:08:54;;;;;;;40.15;22.70;;;0.10;99.90;;;;;;5093457;28;20027;-71
2021/01/09 05:11:19;;;;;;;39.75;22.60;;;0.20;99.90;;;;;;5093031;28;20036;-74
2021/01/09 05:13:46;;;;;;;38.38;21.75;;;0.20;99.90;;;;;;5093843;28;20488;-66
2021/01/09 05:16:13;;;;;;;43.05;24.38;;;0.20;99.90;;;;;;5092675;28;20028;-74
2021/01/09 05:18:40;;;;;;;41.90;24.17;;;0.10;99.90;;;;;;5093502;28;20052;-75
2021/01/09 05:21:07;;;;;;;43.83;23.73;;;0.20;99.90;;;;;;5092687;28;20411;-73
2021/01/09 05:23:49;;;;;;;38.88;21.55;;;0.10;99.90;;;;;;5093555;28;20031;-72
2021/01/09 05:26:16;;;;;;;41.53;23.17;;;0.10;99.90;;;;;;5074368;28;20102;-73
2021/01/09 05:28:56;;;;;;;50.75;24.67;;;0.10;99.90;;;;;;5093076;28;20447;-70
2021/01/09 05:31:24;;;;;;;44.97;24.10;;;0.10;99.90;;;;;;5093312;28;20032;-72
2021/01/09 05:33:51;;;;;;;47.45;25.35;;;0.10;99.90;;;;;;5093086;28;20024;-74
2021/01/09 05:36:18;;;;;;;45.53;24.27;;;0.10;99.90;;;;;;5092191;28;20099;-73
2021/01/09 05:38:45;;;;;;;44.70;23.27;;;0.10;99.90;;;;;;5092650;28;20020;-74
2021/01/09 05:41:13;;;;;;;40.58;22.63;;;0.10;99.90;;;;;;5074093;28;20028;-75
2021/01/09 05:43:39;;;;;;;46.65;23.92;;;0.10;99.90;;;;;;5092886;28;20072;-73
2021/01/09 05:46:07;;;;;;;48.75;25.00;;;0.10;99.90;;;;;;5092550;28;20035;-74
2021/01/09 05:48:34;;;;;;;43.75;24.27;;;0.10;99.90;;;;;;5092928;28;20024;-71
2021/01/09 05:51:04;;;;;;;42.85;24.30;;;0.10;99.90;;;;;;5092200;28;20024;-70
2021/01/09 05:53:43;;;;;;;51.45;26.95;;;0.10;99.90;;;;;;5092679;28;20028;-76
2021/01/09 05:56:14;;;;;;;40.30;23.05;;;0.10;99.90;;;;;;5091948;28;20359;-75
2021/01/09 05:58:41;;;;;;;45.65;24.00;;;0.10;99.90;;;;;;5092679;28;20028;-75
2021/01/09 06:01:08;;;;;;;50.47;26.27;;;0.10;99.90;;;;;;5091643;28;20020;-70
2021/01/09 06:03:38;;;;;;;49.22;24.40;;;0.20;99.90;;;;;;5092514;28;20434;-74
2021/01/09 06:06:22;;;;;;;48.35;24.38;;;0.10;99.90;;;;;;5056905;28;20052;-75
2021/01/09 06:08:59;;;;;;;43.08;23.73;;;0.10;99.90;;;;;;5092268;28;20031;-73
2021/01/09 06:11:35;;;;;;;47.50;24.48;;;0.10;99.90;;;;;;5092456;28;20032;-74
2021/01/09 06:14:03;;;;;;;49.03;24.35;;;0.20;99.90;;;;;;5091758;28;20059;-71
2021/01/09 06:16:30;;;;;;;41.42;21.77;;;0.10;99.90;;;;;;5092422;28;20538;-69
2021/01/09 06:18:57;;;;;;;44.13;22.70;;;0.20;99.90;;;;;;5092177;28;20042;-72
2021/01/09 06:21:25;;;;;;;45.20;24.40;;;0.20;99.90;;;;;;5092162;28;20038;-68
2021/01/09 06:23:53;;;;;;;40.65;23.85;;;0.10;99.90;;;;;;5092482;28;20047;-75
2021/01/09 06:26:20;;;;;;;47.25;24.80;;;0.10;99.90;;;;;;5091480;28;20774;-74
2021/01/09 06:28:50;;;;;;;45.65;24.92;;;0.10;99.90;;;;;;5092691;28;20031;-74
2021/01/09 06:31:19;;;;;;;49.47;25.52;;;0.00;99.90;;;;;;5092451;28;20464;-68
2021/01/09 06:33:48;;;;;;;50.33;26.58;;;0.00;99.90;;;;;;5092600;28;20031;-66
2021/01/09 06:36:14;;;;;;;43.05;23.83;;;0.10;99.90;;;;;;5090885;28;20092;-74
2021/01/09 06:38:41;;;;;;;44.80;23.50;;;0.20;99.90;;;;;;5092124;28;20516;-67
2021/01/09 06:41:13;;;;;;;48.20;23.77;;;0.10;99.90;;;;;;5091149;28;20182;-73
2021/01/09 06:43:43;;;;;;;46.15;23.92;;;0.10;99.90;;;;;;5091929;28;20051;-75
2021/01/09 06:46:10;;;;;;;44.85;26.40;;;0.10;99.90;;;;;;5073133;28;20032;-71
2021/01/09 06:48:37;;;;;;;50.90;26.35;;;0.10;99.90;;;;;;5091507;28;20127;-68
2021/01/09 06:51:23;;;;;;;49.65;26.83;;;0.10;99.90;;;;;;5073011;28;20074;-66
2021/01/09 06:54:14;;;;;;;53.90;28.60;;;0.10;99.90;;;;;;5091858;28;20032;-67
2021/01/09 06:56:50;;;;;;;51.17;26.65;;;0.10;99.90;;;;;;5091545;28;20028;-74
2021/01/09 06:59:33;;;;;;;46.65;25.20;;;0.10;99.90;;;;;;5091359;28;20020;-69
2021/01/09 07:02:16;;;;;;;56.05;27.63;;;0.10;99.90;;;;;;5091539;28;20040;-73
2021/01/09 07:04:47;;;;;;;59.05;28.23;;;0.00;99.90;;;;;;5091454;28;20157;-72
2021/01/09 07:07:23;;;;;;;54.75;27.52;;;0.10;99.90;;;;;;5090689;28;20474;-74
2021/01/09 07:09:50;;;;;;;53.05;27.70;;;0.10;99.90;;;;;;5091448;28;20093;-74
2021/01/09 07:12:17;;;;;;;58.20;29.55;;;0.10;99.90;;;;;;5090901;28;20036;-73
2021/01/09 07:14:44;;;;;;;59.55;29.83;;;0.10;99.90;;;;;;5091639;28;20115;-73
2021/01/09 07:17:14;;;;;;;59.80;29.23;;;0.10;99.90;;;;;;5090687;28;20028;-73
2021/01/09 07:19:42;;;;;;;59.90;28.83;;;0.10;99.90;;;;;;5091475;28;20028;-73
2021/01/09 07:22:09;;;;;;;53.88;29.60;;;0.10;99.90;;;;;;5072664;28;20043;-73
2021/01/09 07:24:38;;;;;;;57.10;28.50;;;0.10;99.90;;;;;;5091493;28;20027;-73
2021/01/09 07:27:06;;;;;;;60.17;30.27;;;0.10;99.90;;;;;;5088365;28;20034;-67
2021/01/09 07:29:42;;;;;;;58.00;29.50;;;0.10;99.90;;;;;;5080762;28;20039;-73
2021/01/09 07:32:08;;;;;;;52.58;27.25;;;0.10;99.90;;;;;;5080037;28;20025;-72
2021/01/09 07:34:36;;;;;;;57.70;29.80;;;0.10;99.90;;;;;;5078686;28;20492;-70
2021/01/09 07:37:02;;;;;;;60.05;30.55;;;0.10;99.90;;;;;;5069946;28;20116;-73
2021/01/09 07:39:28;;;;;;;58.25;30.63;;;0.10;99.90;;;;;;5082268;28;20039;-66
2021/01/09 07:41:55;;;;;;;63.08;30.63;;;0.10;99.90;;;;;;5071418;28;20035;-69
2021/01/09 07:44:23;;;;;;;55.67;29.83;;;0.20;99.90;;;;;;5078403;28;20849;-70
2021/01/09 07:47:00;;;;;;;58.92;29.58;;;0.10;99.90;;;;;;5070880;28;20056;-74
2021/01/09 07:49:35;;;;;;;59.65;29.45;;;0.10;99.90;;;;;;5069913;28;20043;-75
2021/01/09 07:52:03;;;;;;;66.18;31.55;;;0.00;99.90;;;;;;5070307;28;20040;-74
2021/01/09 07:54:35;;;;;;;59.45;30.48;;;0.00;99.90;;;;;;5070308;28;20036;-74
2021/01/09 07:57:27;;;;;;;60.85;32.03;;;0.00;99.90;;;;;;5071093;28;20027;-73
2021/01/09 07:59:56;;;;;;;62.78;31.77;;;-0.10;99.90;;;;;;5066756;28;20477;-74
2021/01/09 08:02:44;;;;;;;60.03;31.20;;;-0.10;99.90;;;;;;5074591;28;20586;-74
2021/01/09 08:05:13;;;;;;;63.17;29.77;;;-0.10;99.90;;;;;;5079932;28;20047;-74
2021/01/09 08:07:45;;;;;;;61.10;30.42;;;-0.10;99.90;;;;;;5094515;28;20028;-74
2021/01/09 08:10:21;;;;;;;64.50;33.13;;;-0.10;99.90;;;;;;5073652;28;20027;-73
2021/01/09 08:12:51;;;;;;;66.75;31.83;;;-0.10;99.90;;;;;;5074847;28;20032;-77
2021/01/09 08:15:17;;;;;;;67.50;32.90;;;-0.10;99.90;;;;;;5074725;28;20386;-81
2021/01/09 08:17:43;;;;;;;58.03;29.38;;;-0.10;99.90;;;;;;5077783;28;20020;-76
2021/01/09 08:20:12;;;;;;;67.82;33.80;;;-0.10;99.90;;;;;;5076984;28;20024;-69
2021/01/09 08:22:48;;;;;;;62.85;30.73;;;-0.10;99.90;;;;;;5075178;28;20032;-77
2021/01/09 08:25:14;;;;;;;64.85;30.77;;;0.00;99.90;;;;;;5073647;28;20043;-73
2021/01/09 08:27:49;;;;;;;63.20;32.05;;;0.00;99.90;;;;;;5074428;28;20031;-76
2021/01/09 08:30:17;;;;;;;60.03;30.70;;;0.00;99.90;;;;;;5073716;28;20083;-78
2021/01/09 08:32:44;;;;;;;60.35;31.05;;;0.00;99.90;;;;;;5073652;28;20098;-75
2021/01/09 08:35:12;;;;;;;57.15;30.73;;;0.10;99.90;;;;;;5072819;28;20408;-75
2021/01/09 08:37:39;;;;;;;57.25;29.88;;;0.10;99.90;;;;;;5056072;28;20039;-74
2021/01/09 08:40:12;;;;;;;63.63;32.03;;;0.10;99.90;;;;;;5092619;28;20099;-75
2021/01/09 08:42:54;;;;;;;56.47;31.02;;;0.20;99.90;;;;;;5094528;28;20097;-72
2021/01/09 08:45:43;;;;;;;60.00;30.80;;;0.20;99.90;;;;;;5093719;28;20036;-75
2021/01/09 08:48:18;;;;;;;63.35;32.58;;;0.30;99.90;;;;;;5093316;28;20107;-72
2021/01/09 08:51:02;;;;;;;63.17;31.02;;;0.30;99.90;;;;;;5096435;28;20126;-84
2021/01/09 08:53:38;;;;;;;61.72;31.50;;;0.30;99.90;;;;;;5077335;28;20111;-75
2021/01/09 08:56:06;;;;;;;56.78;28.58;;;0.30;99.90;;;;;;5068512;28;20028;-75
2021/01/09 08:58:34;;;;;;;56.58;28.48;;;0.40;99.90;;;;;;5087993;28;20055;-76
2021/01/09 09:01:06;;;;;;;61.30;31.05;;;0.50;99.90;;;;;;5093659;28;20024;-73
2021/01/09 09:03:33;;;;;;;55.90;27.73;;;0.50;99.90;;;;;;5074548;28;20044;-77
2021/01/09 09:06:07;;;;;;;54.28;27.40;;;0.60;99.90;;;;;;5093243;28;20134;-77
2021/01/09 09:08:35;;;;;;;55.08;27.67;;;0.60;99.90;;;;;;5076333;28;20105;-77
2021/01/09 09:11:03;;;;;;;52.30;27.50;;;0.70;99.90;;;;;;5073396;28;20025;-73
2021/01/09 09:13:30;;;;;;;56.17;28.85;;;0.60;99.90;;;;;;5073058;28;20029;-74
2021/01/09 09:15:56;;;;;;;55.08;28.40;;;0.60;99.90;;;;;;5073190;28;20020;-81
2021/01/09 09:18:22;;;;;;;58.30;31.05;;;0.60;99.90;;;;;;5072799;28;20012;-85
2021/01/09 09:20:51;;;;;;;62.83;32.53;;;0.70;99.90;;;;;;5074470;28;20068;-82
2021/01/09 09:23:22;;;;;;;60.38;29.83;;;0.70;99.90;;;;;;5077670;28;20024;-77
2021/01/09 09:26:12;;;;;;;53.30;27.98;;;0.80;99.90;;;;;;5090537;28;20024;-82
2021/01/09 09:28:49;;;;;;;61.97;31.05;;;0.80;99.90;;;;;;5073857;28;20469;-75
2021/01/09 09:31:22;;;;;;;55.55;29.27;;;0.80;99.90;;;;;;5071857;28;20025;-73
2021/01/09 09:34:04;;;;;;;52.80;26.90;;;0.70;99.90;;;;;;5074757;28;20029;-78
2021/01/09 09:36:36;;;;;;;56.75;28.73;;;0.80;99.90;;;;;;5073382;28;20025;-78
2021/01/09 09:39:17;;;;;;;56.80;28.10;;;0.70;99.90;;;;;;5084321;28;20016;-76
2021/01/09 09:41:51;;;;;;;58.10;28.52;;;0.70;99.90;;;;;;5075366;28;20401;-76
2021/01/09 09:44:17;;;;;;;50.10;25.63;;;0.60;99.90;;;;;;5098407;28;20032;-77
2021/01/09 09:46:44;;;;;;;47.30;24.77;;;0.60;99.90;;;;;;5080511;28;20031;-79
2021/01/09 09:49:11;;;;;;;52.88;27.58;;;0.50;99.90;;;;;;5073696;28;20016;-76
2021/01/09 09:51:38;;;;;;;57.65;29.55;;;0.50;99.90;;;;;;5092608;28;20016;-78
2021/01/09 09:54:04;;;;;;;49.13;24.95;;;0.40;99.90;;;;;;5086657;28;20060;-72
2021/01/09 09:56:41;;;;;;;43.25;23.30;;;0.50;99.90;;;;;;5068741;28;20109;-77
2021/01/09 09:59:11;;;;;;;49.80;25.83;;;0.60;99.90;;;;;;5071158;28;20032;-74
2021/01/09 10:01:37;;;;;;;51.10;25.33;;;0.60;99.90;;;;;;5071975;28;20031;-74
2021/01/09 10:04:11;;;;;;;44.60;24.65;;;0.60;99.90;;;;;;5071668;28;20024;-72
2021/01/09 10:06:42;;;;;;;48.15;25.48;;;0.60;99.90;;;;;;5073401;28;20052;-75
2021/01/09 10:09:17;;;;;;;45.90;25.00;;;0.70;99.90;;;;;;5085714;28;20147;-76
2021/01/09 10:11:46;;;;;;;44.80;24.80;;;0.80;99.90;;;;;;5081579;28;20020;-74
2021/01/09 10:14:12;;;;;;;41.03;22.15;;;0.80;99.90;;;;;;5082435;28;20033;-74
2021/01/09 10:16:39;;;;;;;41.15;22.88;;;0.90;99.90;;;;;;5090694;28;20028;-72
2021/01/09 10:19:06;;;;;;;40.40;21.63;;;0.90;99.90;;;;;;5075965;28;20099;-72
2021/01/09 10:21:33;;;;;;;39.65;21.25;;;1.00;99.90;;;;;;5088747;28;20020;-71
2021/01/09 10:24:00;;;;;;;38.92;21.88;;;1.00;99.90;;;;;;5090365;28;20048;-72
2021/01/09 10:26:34;;;;;;;43.47;22.17;;;1.00;99.90;;;;;;5080745;28;20107;-78
2021/01/09 10:29:01;;;;;;;39.38;22.27;;;1.00;99.90;;;;;;5091574;28;20024;-75
2021/01/09 10:31:47;;;;;;;37.28;20.58;;;1.00;99.90;;;;;;5073520;28;20849;-74
2021/01/09 10:34:13;;;;;;;36.88;19.67;;;1.10;99.90;;;;;;5069969;28;20060;-73
2021/01/09 10:36:40;;;;;;;37.67;21.38;;;1.10;99.90;;;;;;5072193;28;20075;-76
2021/01/09 10:39:07;;;;;;;36.88;19.98;;;1.20;99.90;;;;;;5071123;28;20504;-71
2021/01/09 10:41:34;;;;;;;36.05;20.17;;;1.20;99.90;;;;;;5071599;28;20037;-73
2021/01/09 10:43:59;;;;;;;34.65;19.30;;;1.30;99.90;;;;;;5071589;28;20079;-73
2021/01/09 10:46:28;;;;;;;32.75;19.10;;;1.40;99.90;;;;;;5053056;28;20158;-73
2021/01/09 10:48:54;;;;;;;35.72;20.02;;;1.40;99.90;;;;;;5071541;28;20056;-72
2021/01/09 10:51:22;;;;;;;39.83;21.63;;;1.40;99.90;;;;;;5071310;28;20032;-72
2021/01/09 10:53:48;;;;;;;40.15;21.80;;;1.40;99.90;;;;;;5071754;28;20025;-72
2021/01/09 10:56:15;;;;;;;39.22;21.55;;;1.40;99.90;;;;;;5066695;28;20024;-71
2021/01/09 10:58:40;;;;;;;39.55;20.95;;;1.40;99.90;;;;;;5071931;28;20029;-77
2021/01/09 11:01:07;;;;;;;37.47;21.10;;;1.40;99.90;;;;;;5077444;28;20032;-73
2021/01/09 11:03:33;;;;;;;31.63;18.27;;;1.50;99.90;;;;;;5110607;28;20050;-75
2021/01/09 11:05:59;;;;;;;36.15;20.58;;;1.40;99.90;;;;;;5072126;28;20486;-80
2021/01/09 11:08:26;;;;;;;32.53;19.48;;;1.40;99.90;;;;;;5070784;28;20041;-80
2021/01/09 11:10:52;;;;;;;36.28;20.35;;;1.50;99.90;;;;;;5053434;28;20032;-77
2021/01/09 11:13:18;;;;;;;32.67;19.45;;;1.50;99.90;;;;;;5070366;28;20060;-80
2021/01/09 11:15:48;;;;;;;31.95;18.35;;;1.40;99.90;;;;;;5071477;28;20067;-81
2021/01/09 11:18:14;;;;;;;38.85;22.27;;;1.40;99.30;;;;;;5070866;28;20021;-78
2021/01/09 11:20:44;;;;;;;35.70;19.88;;;1.40;99.60;;;;;;5071075;28;20052;-80
2021/01/09 11:23:09;;;;;;;31.15;18.02;;;1.50;98.10;;;;;;5070783;28;20055;-78
2021/01/09 11:25:35;;;;;;;23.33;14.13;;;1.60;98.70;;;;;;5071793;28;20490;-80
2021/01/09 11:28:01;;;;;;;18.50;10.82;;;1.70;91.80;;;;;;5074896;28;20493;-74
2021/01/09 11:30:27;;;;;;;16.48;10.40;;;1.80;86.70;;;;;;5076666;28;20055;-73
2021/01/09 11:32:53;;;;;;;18.38;10.90;;;1.80;88.30;;;;;;5070996;28;20378;-74
2021/01/09 11:35:18;;;;;;;16.02;9.88;;;1.80;90.00;;;;;;5072610;28;20087;-73
2021/01/09 11:37:44;;;;;;;17.98;10.43;;;1.90;81.90;;;;;;5095595;28;20020;-78
2021/01/09 11:40:10;;;;;;;20.85;12.02;;;1.90;84.90;;;;;;5094811;28;20104;-82
2021/01/09 11:42:35;;;;;;;20.75;12.50;;;2.00;85.80;;;;;;5096776;28;20059;-76
2021/01/09 11:45:02;;;;;;;17.35;11.15;;;2.00;86.50;;;;;;5095902;28;20032;-81
2021/01/09 11:47:27;;;;;;;19.80;11.07;;;2.10;85.60;;;;;;5094938;28;20198;-80
2021/01/09 11:49:53;;;;;;;17.02;10.48;;;2.20;82.20;;;;;;5095537;28;20477;-78
2021/01/09 11:52:18;;;;;;;18.73;11.18;;;2.30;81.20;;;;;;5076316;28;20062;-82
2021/01/09 11:54:44;;;;;;;17.05;10.35;;;2.20;81.60;;;;;;5090356;28;20032;-78
2021/01/09 11:57:10;;;;;;;18.70;10.43;;;2.20;80.90;;;;;;5072313;28;20055;-76
2021/01/09 11:59:37;;;;;;;16.65;10.05;;;2.30;80.70;;;;;;5074300;28;20025;-79
2021/01/09 12:02:02;;;;;;;16.83;9.88;;;2.30;79.80;;;;;;5074587;28;20028;-78
2021/01/09 12:04:28;;;;;;;16.00;10.48;;;2.40;79.90;;;;;;5074358;28;20065;-74
2021/01/09 12:07:00;;;;;;;20.23;10.32;;;2.40;80.60;;;;;;5093116;28;20044;-85
2021/01/09 12:09:25;;;;;;;16.48;10.07;;;2.40;79.10;;;;;;5094368;28;20025;-81
2021/01/09 12:11:55;;;;;;;17.38;10.02;;;2.30;79.60;;;;;;5095315;28;20085;-86
2021/01/09 12:14:21;;;;;;;20.98;10.82;;;2.30;80.50;;;;;;5094084;28;20099;-78
2021/01/09 12:16:47;;;;;;;18.92;11.05;;;2.30;81.30;;;;;;5094478;28;20111;-83
2021/01/09 12:19:13;;;;;;;17.42;10.82;;;2.30;84.40;;;;;;5076121;28;20027;-78
2021/01/09 12:21:38;;;;;;;19.55;10.70;;;2.30;85.10;;;;;;5094767;28;20036;-82
2021/01/09 12:24:05;;;;;;;15.95;10.13;;;2.30;84.60;;;;;;5094903;28;20020;-75
2021/01/09 12:26:30;;;;;;;16.15;10.20;;;2.40;81.30;;;;;;5077174;28;20033;-72
2021/01/09 12:28:56;;;;;;;16.73;9.35;;;2.30;79.50;;;;;;5073749;28;20457;-71
2021/01/09 12:31:32;;;;;;;18.33;10.95;;;2.10;79.50;;;;;;5078703;28;20416;-73
2021/01/09 12:33:59;;;;;;;13.02;8.50;;;2.10;82.40;;;;;;5057234;28;20082;-72
2021/01/09 12:36:24;;;;;;;16.13;9.10;;;2.00;80.10;;;;;;5073001;28;20032;-73
2021/01/09 12:38:50;;;;;;;14.07;8.35;;;2.00;79.60;;;;;;5056270;28;20024;-71
2021/01/09 12:41:16;;;;;;;14.35;9.10;;;1.90;80.00;;;;;;5073467;28;20024;-72